Time;durP1;ratioP1;P1;durP2;ratioP2;P2;SDS_P1;SDS_P2;PMS_P1;PMS_P2;Temp;Humidity;BMP_temperature;BMP_pressure;BME280_temperature;BME280_humidity;BME280_pressure;Samples;Min_cycle;Max_cycle;Signal;HPM_P1;HPM_P2
2022/05/07 00:01:42;;;;;;;30.15;19.88;;;27.00;99.90;;;;;;5074662;28;20032;-61
2022/05/07 00:04:08;;;;;;;29.33;20.02;;;27.00;99.90;;;;;;5074676;28;20020;-62
2022/05/07 00:06:35;;;;;;;28.88;19.98;;;27.00;99.90;;;;;;5073365;28;20032;-63
2022/05/07 00:09:02;;;;;;;27.02;20.35;;;27.10;99.90;;;;;;5074393;28;20508;-61
2022/05/07 00:11:29;;;;;;;39.72;21.42;;;27.20;99.90;;;;;;5072578;28;20036;-61
2022/05/07 00:13:55;;;;;;;61.72;37.38;;;27.20;99.90;;;;;;5057770;28;20033;-61
2022/05/07 00:18:52;;;;;;;52.70;32.28;;;27.20;99.90;;;;;;5068936;28;20154;-61
2022/05/07 00:21:19;;;;;;;40.28;26.05;;;27.30;99.90;;;;;;5074107;28;20048;-61
2022/05/07 00:23:46;;;;;;;33.97;24.85;;;27.30;99.90;;;;;;5073336;28;20326;-61
2022/05/07 00:26:12;;;;;;;55.50;37.67;;;27.40;99.90;;;;;;5074077;28;20414;-60
2022/05/07 00:28:40;;;;;;;39.65;26.27;;;27.40;99.90;;;;;;5073914;28;20178;-61
2022/05/07 00:31:06;;;;;;;30.38;23.42;;;27.40;99.90;;;;;;5074883;28;20085;-61
2022/05/07 00:33:33;;;;;;;31.33;23.17;;;27.50;99.90;;;;;;5074691;28;20052;-61
2022/05/07 00:36:00;;;;;;;33.75;23.85;;;27.50;99.90;;;;;;5072668;28;20473;-61
2022/05/07 00:38:27;;;;;;;38.65;26.65;;;27.50;99.90;;;;;;5069264;28;20034;-61
2022/05/07 00:40:55;;;;;;;29.67;23.13;;;27.50;99.90;;;;;;5074491;28;20473;-64
2022/05/07 00:43:21;;;;;;;40.60;29.70;;;27.60;99.90;;;;;;5072556;28;20493;-64
2022/05/07 00:45:50;;;;;;;136.32;93.07;;;27.60;99.90;;;;;;5073777;28;20054;-63
2022/05/07 00:48:17;;;;;;;38.95;26.27;;;27.70;99.90;;;;;;5073884;28;20021;-65
2022/05/07 00:53:15;;;;;;;;;;;27.70;99.90;;;;;;5073216;28;20582;-63
2022/05/07 00:55:43;;;;;;;27.52;19.92;;;27.70;99.90;;;;;;5074253;28;20404;-64
2022/05/07 00:58:10;;;;;;;27.27;21.00;;;27.70;99.90;;;;;;5072922;28;20040;-64
2022/05/07 01:00:36;;;;;;;31.70;19.88;;;27.60;99.90;;;;;;5074083;28;20028;-64
2022/05/07 01:03:04;;;;;;;34.95;21.42;;;27.60;99.90;;;;;;5073298;28;20021;-62
2022/05/07 01:05:31;;;;;;;26.55;21.30;;;27.70;99.90;;;;;;5073314;28;20050;-62
2022/05/07 01:07:59;;;;;;;31.73;21.10;;;27.70;99.90;;;;;;5070089;28;20112;-59
2022/05/07 01:10:27;;;;;;;31.70;22.13;;;27.70;99.90;;;;;;5070574;28;20020;-63
2022/05/07 01:12:55;;;;;;;31.00;22.27;;;27.70;99.90;;;;;;5072587;28;20028;-60
2022/05/07 01:15:22;;;;;;;30.40;20.67;;;27.70;99.90;;;;;;5071459;28;20374;-60
2022/05/07 01:17:48;;;;;;;35.08;22.38;;;27.80;99.90;;;;;;5072713;28;20493;-60
2022/05/07 01:20:15;;;;;;;29.45;20.45;;;27.90;99.90;;;;;;5073230;28;20029;-65
2022/05/07 01:22:43;;;;;;;79.25;24.48;;;28.00;99.90;;;;;;5073304;28;20039;-65
2022/05/07 01:25:09;;;;;;;41.85;20.27;;;28.10;99.90;;;;;;5071216;28;20032;-65
2022/05/07 01:27:36;;;;;;;38.40;20.20;;;28.20;99.90;;;;;;5070564;28;20110;-66
2022/05/07 01:30:04;;;;;;;35.28;18.70;;;28.20;99.90;;;;;;5069752;28;20035;-65
2022/05/07 01:32:30;;;;;;;31.95;20.50;;;28.30;99.90;;;;;;5070560;28;20089;-63
2022/05/07 01:34:57;;;;;;;41.15;24.13;;;28.40;99.90;;;;;;5072114;28;20035;-64
2022/05/07 01:37:25;;;;;;;40.53;22.63;;;28.40;99.90;;;;;;5073046;28;20059;-65
2022/05/07 01:39:52;;;;;;;29.77;21.63;;;28.40;99.90;;;;;;5072853;28;20033;-63
2022/05/07 01:42:19;;;;;;;28.48;18.33;;;28.50;99.90;;;;;;5070862;28;20525;-63
2022/05/07 01:44:45;;;;;;;26.77;19.10;;;28.60;99.90;;;;;;5072670;28;20370;-63
2022/05/07 01:49:43;;;;;;;28.50;18.63;;;28.60;99.90;;;;;;5067895;28;20089;-62
2022/05/07 01:52:10;;;;;;;25.30;18.05;;;28.70;99.90;;;;;;5071031;28;20040;-62
2022/05/07 01:54:36;;;;;;;32.60;18.75;;;28.80;99.90;;;;;;5072551;28;20174;-61
2022/05/07 01:57:03;;;;;;;27.50;19.65;;;28.80;99.90;;;;;;5072232;28;20028;-62
2022/05/07 01:59:30;;;;;;;27.45;18.27;;;28.90;99.90;;;;;;5071087;28;20024;-60
2022/05/07 02:01:57;;;;;;;36.10;20.23;;;28.90;99.90;;;;;;5073853;28;20473;-59
2022/05/07 02:04:24;;;;;;;31.38;20.23;;;28.90;99.90;;;;;;5074456;28;20032;-61
2022/05/07 02:06:50;;;;;;;30.88;17.40;;;29.00;99.90;;;;;;5075709;28;20095;-63
2022/05/07 02:09:18;;;;;;;28.35;18.35;;;29.00;99.90;;;;;;5074455;28;20025;-61
2022/05/07 02:11:45;;;;;;;38.33;23.50;;;29.00;99.90;;;;;;5076087;28;20485;-62
2022/05/07 02:14:11;;;;;;;33.33;20.70;;;29.10;99.90;;;;;;5072975;28;20485;-62
2022/05/07 02:16:38;;;;;;;25.73;18.08;;;29.10;99.90;;;;;;5074380;28;20090;-61
2022/05/07 02:19:05;;;;;;;26.50;16.02;;;29.20;99.90;;;;;;5072375;28;20063;-62
2022/05/07 02:21:32;;;;;;;18.85;14.48;;;29.20;99.90;;;;;;5075001;28;20033;-60
2022/05/07 02:23:58;;;;;;;23.35;12.25;;;29.10;99.90;;;;;;5073831;28;20059;-61
2022/05/07 02:26:25;;;;;;;20.05;12.75;;;29.20;99.90;;;;;;5073027;28;20063;-60
2022/05/07 02:28:52;;;;;;;19.60;10.98;;;29.20;99.90;;;;;;5063480;28;20029;-60
2022/05/07 02:31:18;;;;;;;20.75;11.20;;;29.40;99.90;;;;;;5074765;28;20194;-60
2022/05/07 02:33:45;;;;;;;20.98;12.48;;;29.50;99.90;;;;;;5076539;28;20040;-63
2022/05/07 02:36:12;;;;;;;19.48;10.88;;;29.60;99.90;;;;;;5075564;28;20052;-60
2022/05/07 02:38:40;;;;;;;17.50;11.57;;;29.60;99.90;;;;;;5073492;28;20036;-60
2022/05/07 02:43:37;;;;;;;19.13;12.57;;;29.60;99.90;;;;;;5073637;28;20017;-60
2022/05/07 02:46:04;;;;;;;18.33;13.93;;;29.70;99.90;;;;;;5072300;28;20035;-60
2022/05/07 02:48:35;;;;;;;24.48;13.68;;;29.80;99.90;;;;;;5074389;28;20028;-60
2022/05/07 02:51:03;;;;;;;22.52;12.70;;;29.90;99.90;;;;;;5072152;28;20064;-59
2022/05/07 02:53:29;;;;;;;16.27;10.93;;;30.00;99.90;;;;;;5073538;28;20075;-61
2022/05/07 02:55:56;;;;;;;20.98;11.40;;;30.00;99.90;;;;;;5074958;28;20063;-60
2022/05/07 02:58:23;;;;;;;16.13;10.30;;;30.10;99.90;;;;;;5073214;28;20051;-60
2022/05/07 03:00:49;;;;;;;16.00;10.30;;;30.20;99.90;;;;;;5074482;28;20029;-60
2022/05/07 03:03:16;;;;;;;14.40;9.68;;;30.30;99.90;;;;;;5071817;28;20313;-60
2022/05/07 03:05:43;;;;;;;15.55;8.55;;;30.30;99.90;;;;;;5073929;28;20063;-61
2022/05/07 03:08:10;;;;;;;19.40;10.32;;;30.20;99.90;;;;;;5068763;28;20028;-61
2022/05/07 03:10:36;;;;;;;22.02;12.60;;;30.20;99.90;;;;;;5074414;28;20111;-61
2022/05/07 03:13:03;;;;;;;23.15;13.10;;;30.20;99.90;;;;;;5075584;28;20060;-61
2022/05/07 03:15:30;;;;;;;20.75;9.32;;;30.30;99.90;;;;;;5074307;28;20078;-60
2022/05/07 03:17:56;;;;;;;14.20;8.88;;;30.50;99.90;;;;;;5075545;28;20101;-60
2022/05/07 03:20:24;;;;;;;18.23;10.88;;;30.60;99.90;;;;;;5075569;28;20172;-61
2022/05/07 03:22:51;;;;;;;19.90;9.60;;;30.70;99.90;;;;;;5074263;28;20044;-61
2022/05/07 03:25:17;;;;;;;12.23;7.50;;;30.70;99.90;;;;;;5067602;28;20099;-60
2022/05/07 03:27:44;;;;;;;14.20;7.82;;;30.80;99.90;;;;;;5068446;28;20186;-60
2022/05/07 03:30:11;;;;;;;12.88;8.00;;;31.00;99.90;;;;;;5072370;28;20124;-60
2022/05/07 03:32:38;;;;;;;14.02;7.85;;;31.00;99.90;;;;;;5071424;28;20112;-63
2022/05/07 03:35:05;;;;;;;13.57;8.20;;;31.10;99.90;;;;;;5074787;28;20473;-63
2022/05/07 03:37:32;;;;;;;12.43;6.63;;;31.20;99.90;;;;;;5068465;28;20182;-62
2022/05/07 03:39:59;;;;;;;13.68;6.85;;;31.10;99.90;;;;;;5075611;28;20029;-63
2022/05/07 03:42:27;;;;;;;11.77;6.00;;;31.20;99.90;;;;;;5074147;28;20028;-60
2022/05/07 03:44:55;;;;;;;12.27;5.93;;;31.30;99.90;;;;;;5075287;28;20029;-60
2022/05/07 03:47:22;;;;;;;14.20;6.30;;;31.20;99.90;;;;;;5070107;28;20469;-60
2022/05/07 03:49:48;;;;;;;10.35;5.82;;;31.20;99.90;;;;;;5065748;28;20055;-60
2022/05/07 03:54:53;;;;;;;10.55;5.55;;;31.40;99.90;;;;;;5073380;28;20099;-61
2022/05/07 03:57:20;;;;;;;10.45;4.95;;;31.50;99.90;;;;;;5073537;28;20032;-61
2022/05/07 03:59:47;;;;;;;13.30;4.93;;;31.60;99.90;;;;;;5073829;28;20036;-61
2022/05/07 04:02:13;;;;;;;12.25;5.25;;;31.70;99.90;;;;;;5068765;28;20032;-61
2022/05/07 04:04:40;;;;;;;11.55;4.10;;;31.60;99.90;;;;;;5072500;28;20043;-60
2022/05/07 04:07:07;;;;;;;6.35;3.47;;;31.80;99.90;;;;;;5069602;28;20101;-59
2022/05/07 04:09:35;;;;;;;5.15;3.70;;;31.80;99.90;;;;;;5069486;28;20041;-60
2022/05/07 04:12:02;;;;;;;6.72;3.55;;;31.90;99.90;;;;;;5074584;28;20035;-63
2022/05/07 04:14:29;;;;;;;15.55;4.65;;;32.00;99.90;;;;;;5074389;28;20024;-59
2022/05/07 04:16:55;;;;;;;12.60;3.65;;;32.00;99.90;;;;;;5074182;28;20626;-60
2022/05/07 04:19:22;;;;;;;7.13;3.78;;;32.10;99.90;;;;;;5074709;28;20416;-60
2022/05/07 04:21:52;;;;;;;9.80;6.20;;;32.00;99.90;;;;;;5070970;28;20052;-60
2022/05/07 04:24:19;;;;;;;11.93;8.10;;;32.00;99.90;;;;;;5070435;28;20036;-61
2022/05/07 04:26:46;;;;;;;7.13;4.75;;;31.90;99.90;;;;;;5072438;28;20394;-61
2022/05/07 04:29:16;;;;;;;13.40;5.85;;;31.90;99.90;;;;;;5070941;28;20033;-57
2022/05/07 04:31:44;;;;;;;7.82;4.30;;;32.00;99.90;;;;;;5073400;28;20077;-63
2022/05/07 04:34:10;;;;;;;5.97;3.38;;;31.90;99.90;;;;;;5073449;28;20031;-60
2022/05/07 04:36:37;;;;;;;9.95;5.85;;;31.80;99.90;;;;;;5071034;28;20039;-60
2022/05/07 04:39:04;;;;;;;17.65;10.10;;;31.90;99.90;;;;;;5067128;28;20039;-63
2022/05/07 04:41:31;;;;;;;8.82;6.38;;;32.00;99.90;;;;;;5071001;28;20024;-62
2022/05/07 04:43:58;;;;;;;10.25;7.10;;;32.10;99.90;;;;;;5070832;28;20028;-60
2022/05/07 04:46:24;;;;;;;4.20;3.00;;;32.20;99.90;;;;;;5069934;28;20043;-60
2022/05/07 04:48:51;;;;;;;21.23;13.20;;;32.20;99.90;;;;;;5073389;28;20384;-60
2022/05/07 04:51:18;;;;;;;64.88;50.40;;;32.30;99.90;;;;;;5070459;28;20036;-60
2022/05/07 04:53:44;;;;;;;53.15;32.60;;;32.30;99.90;;;;;;5073544;28;20056;-60
2022/05/07 04:56:11;;;;;;;28.95;17.25;;;32.30;99.90;;;;;;5073681;28;20031;-59
2022/05/07 04:58:38;;;;;;;7.95;4.28;;;32.30;99.90;;;;;;5073463;28;20021;-60
2022/05/07 05:01:05;;;;;;;22.15;8.95;;;32.30;99.90;;;;;;5073734;28;20070;-60
2022/05/07 05:03:31;;;;;;;25.42;17.98;;;32.40;99.90;;;;;;5073942;28;20036;-59
2022/05/07 05:05:58;;;;;;;15.60;10.82;;;32.50;99.90;;;;;;5072800;28;20108;-60
2022/05/07 05:08:25;;;;;;;29.10;15.20;;;32.50;99.90;;;;;;5072201;28;20035;-59
2022/05/07 05:10:51;;;;;;;13.23;7.15;;;32.50;99.90;;;;;;5073697;28;20028;-60
2022/05/07 05:13:18;;;;;;;25.17;14.13;;;32.50;99.90;;;;;;5067907;28;20036;-61
2022/05/07 05:15:44;;;;;;;12.88;5.90;;;32.50;99.90;;;;;;5062632;28;20039;-60
2022/05/07 05:18:13;;;;;;;12.60;5.60;;;32.60;99.90;;;;;;5061838;28;20377;-59
2022/05/07 05:20:40;;;;;;;13.77;4.88;;;32.60;99.90;;;;;;5069169;28;20107;-59
2022/05/07 05:23:07;;;;;;;10.88;4.30;;;32.50;99.90;;;;;;5070750;28;20016;-60
2022/05/07 05:25:33;;;;;;;5.15;3.58;;;32.50;99.90;;;;;;5072525;28;20097;-60
2022/05/07 05:28:00;;;;;;;12.60;7.35;;;32.60;99.90;;;;;;5071485;28;20055;-63
2022/05/07 05:30:27;;;;;;;4.63;3.00;;;32.60;99.90;;;;;;5073224;28;20093;-61
2022/05/07 05:32:53;;;;;;;133.20;90.20;;;32.70;99.90;;;;;;5074217;28;20021;-60
2022/05/07 05:35:20;;;;;;;10.18;6.95;;;32.70;99.90;;;;;;5074148;28;20028;-60
2022/05/07 05:37:47;;;;;;;103.03;73.18;;;32.60;99.60;;;;;;5073791;28;20059;-62
2022/05/07 05:40:14;;;;;;;186.07;137.52;;;32.60;99.90;;;;;;5080497;28;20024;-61
2022/05/07 05:42:40;;;;;;;518.35;409.92;;;32.60;99.30;;;;;;5079457;28;20343;-60
2022/05/07 05:45:09;;;;;;;208.48;131.77;;;32.60;99.00;;;;;;5077179;28;20040;-60
2022/05/07 05:47:36;;;;;;;210.23;117.93;;;32.60;98.30;;;;;;5077090;28;20090;-57
2022/05/07 05:50:03;;;;;;;44.97;25.08;;;32.50;96.90;;;;;;5076336;28;20107;-60
2022/05/07 05:52:31;;;;;;;22.60;15.07;;;32.40;97.80;;;;;;5076666;28;20116;-61
2022/05/07 05:54:58;;;;;;;18.15;13.50;;;32.40;98.20;;;;;;5078744;28;20085;-60
2022/05/07 05:57:24;;;;;;;221.80;190.55;;;32.30;98.40;;;;;;5073416;28;20029;-60
2022/05/07 05:59:51;;;;;;;370.77;322.45;;;32.30;99.10;;;;;;5078445;28;20393;-60
2022/05/07 06:02:18;;;;;;;456.38;393.65;;;32.30;98.80;;;;;;5074188;28;20023;-60
2022/05/07 06:04:45;;;;;;;54.03;47.97;;;32.30;98.90;;;;;;5077682;28;20039;-60
2022/05/07 06:07:12;;;;;;;191.63;159.95;;;32.30;98.30;;;;;;5078867;28;20036;-61
2022/05/07 06:09:38;;;;;;;45.38;35.63;;;32.40;98.80;;;;;;5078470;28;20397;-61
2022/05/07 06:12:05;;;;;;;416.95;369.73;;;32.50;98.30;;;;;;5077766;28;20035;-61
2022/05/07 06:14:32;;;;;;;687.42;614.08;;;32.60;98.20;;;;;;5077292;28;20028;-60
2022/05/07 06:16:59;;;;;;;249.38;221.93;;;32.80;97.80;;;;;;5078748;28;20477;-60
2022/05/07 06:19:26;;;;;;;270.30;191.63;;;32.90;97.80;;;;;;5079339;28;20032;-60
2022/05/07 06:21:53;;;;;;;299.92;183.52;;;33.00;97.70;;;;;;5078955;28;20063;-61
2022/05/07 06:29:36;;;;;;;15.18;9.75;;;33.20;96.50;;;;;;5064280;28;20032;-61
2022/05/07 06:32:02;;;;;;;225.82;139.73;;;33.20;94.90;;;;;;5076271;28;20043;-61
2022/05/07 06:34:29;;;;;;;56.78;36.00;;;33.30;95.50;;;;;;5075315;28;20095;-60
2022/05/07 06:36:57;;;;;;;27.48;19.08;;;33.40;95.70;;;;;;5078054;28;20037;-60
2022/05/07 06:39:24;;;;;;;30.80;19.00;;;33.40;95.70;;;;;;5076186;28;20025;-60
2022/05/07 06:41:52;;;;;;;81.65;64.00;;;33.40;95.40;;;;;;5077916;28;20342;-59
2022/05/07 06:44:18;;;;;;;69.30;51.25;;;33.60;95.40;;;;;;5077924;28;20036;-60
2022/05/07 06:46:45;;;;;;;69.72;45.60;;;33.70;94.70;;;;;;5076587;28;20079;-60
2022/05/07 06:49:14;;;;;;;230.18;139.45;;;33.80;94.60;;;;;;5076689;28;20031;-59
2022/05/07 06:51:41;;;;;;;90.70;56.25;;;33.70;94.60;;;;;;5075285;28;20032;-60
2022/05/07 06:54:07;;;;;;;53.00;31.67;;;33.70;95.20;;;;;;5076738;28;20040;-61
2022/05/07 06:56:34;;;;;;;165.30;90.00;;;33.70;94.50;;;;;;5075629;28;20122;-60
2022/05/07 06:59:01;;;;;;;27.27;15.85;;;33.60;94.40;;;;;;5075313;28;20028;-61
2022/05/07 07:01:29;;;;;;;205.07;113.40;;;33.50;94.90;;;;;;5074224;28;20048;-61
2022/05/07 07:03:55;;;;;;;143.48;78.13;;;33.50;95.40;;;;;;5075133;28;20056;-62
2022/05/07 07:06:22;;;;;;;184.63;108.32;;;33.40;95.80;;;;;;5073251;28;20074;-60
2022/05/07 07:08:49;;;;;;;74.55;42.75;;;33.40;96.00;;;;;;5074876;28;20032;-61
2022/05/07 07:11:16;;;;;;;42.35;24.70;;;33.40;96.40;;;;;;5074211;28;20032;-61
2022/05/07 07:13:42;;;;;;;54.95;31.02;;;33.40;95.90;;;;;;5074972;28;20041;-61
2022/05/07 07:16:09;;;;;;;16.85;10.93;;;33.40;96.20;;;;;;5074909;28;20040;-60
2022/05/07 07:18:36;;;;;;;39.20;24.75;;;33.50;95.50;;;;;;5074464;28;20533;-60
2022/05/07 07:21:03;;;;;;;40.95;24.23;;;33.50;95.70;;;;;;5074148;28;20056;-60
2022/05/07 07:23:29;;;;;;;52.60;32.63;;;33.60;96.00;;;;;;5074288;28;20032;-61
2022/05/07 07:25:57;;;;;;;242.45;134.15;;;33.50;96.50;;;;;;5075233;28;20070;-61
2022/05/07 07:28:24;;;;;;;313.75;170.15;;;33.50;96.50;;;;;;5072968;28;20089;-63
2022/05/07 07:30:51;;;;;;;158.07;83.47;;;33.40;96.70;;;;;;5066403;28;20389;-61
2022/05/07 07:33:18;;;;;;;80.45;50.97;;;33.40;96.70;;;;;;5058233;28;20355;-60
2022/05/07 07:35:45;;;;;;;98.60;58.95;;;33.30;96.10;;;;;;5061517;28;20024;-60
2022/05/07 07:38:12;;;;;;;69.90;41.95;;;33.20;95.30;;;;;;5073350;28;20104;-63
2022/05/07 07:40:39;;;;;;;169.70;107.47;;;33.10;95.70;;;;;;5076176;28;20162;-62
2022/05/07 07:43:06;;;;;;;103.68;57.80;;;33.10;96.00;;;;;;5074561;28;20037;-61
2022/05/07 07:48:11;;;;;;;193.98;117.97;;;33.20;94.90;;;;;;5077773;28;20020;-61
2022/05/07 07:50:39;;;;;;;164.05;93.93;;;33.20;94.40;;;;;;5077494;28;20059;-61
2022/05/07 07:53:09;;;;;;;152.95;62.58;;;33.10;94.50;;;;;;5073590;28;20093;-63
2022/05/07 07:55:36;;;;;;;403.10;235.30;;;33.00;93.50;;;;;;5069016;28;20036;-61
2022/05/07 07:58:07;;;;;;;300.98;176.38;;;33.00;93.70;;;;;;5071735;28;20017;-60
2022/05/07 08:00:36;;;;;;;597.65;395.63;;;32.90;93.60;;;;;;5061412;28;20040;-60
2022/05/07 08:03:09;;;;;;;76.03;45.65;;;32.80;92.90;;;;;;5070015;28;20474;-62
2022/05/07 08:05:37;;;;;;;214.90;118.07;;;32.70;93.10;;;;;;5073750;28;20082;-63
2022/05/07 08:13:22;;;;;;;99.38;55.00;;;32.60;95.40;;;;;;5073906;28;20016;-59
2022/05/07 08:15:49;;;;;;;142.70;76.15;;;32.60;93.50;;;;;;5072895;28;20497;-60
2022/05/07 08:18:16;;;;;;;221.23;127.97;;;32.50;95.90;;;;;;5071957;28;20141;-60
2022/05/07 08:20:44;;;;;;;368.60;220.13;;;32.10;96.40;;;;;;5061146;28;20104;-60
2022/05/07 08:23:11;;;;;;;244.57;143.38;;;31.50;98.40;;;;;;5074703;28;20028;-60
2022/05/07 08:25:39;;;;;;;302.35;175.40;;;31.30;99.50;;;;;;5075567;28;20025;-61
2022/05/07 08:28:06;;;;;;;109.35;66.80;;;31.30;99.90;;;;;;5071619;28;20392;-62
2022/05/07 08:30:33;;;;;;;328.05;253.93;;;31.10;99.90;;;;;;5065909;28;20065;-63
2022/05/07 08:32:59;;;;;;;194.38;149.13;;;30.80;99.90;;;;;;5068501;28;20063;-60
2022/05/07 08:35:26;;;;;;;134.15;99.60;;;30.70;99.90;;;;;;5077094;28;20081;-60
2022/05/07 08:37:53;;;;;;;133.70;85.70;;;30.60;99.90;;;;;;5063967;28;20032;-60
2022/05/07 08:40:20;;;;;;;113.82;80.63;;;30.60;99.90;;;;;;5071998;28;20024;-59
2022/05/07 08:42:47;;;;;;;123.35;82.22;;;30.60;99.90;;;;;;5073987;28;20424;-59
2022/05/07 08:45:14;;;;;;;416.00;289.65;;;30.70;99.90;;;;;;5074039;28;20032;-61
2022/05/07 08:47:43;;;;;;;258.02;172.27;;;30.80;99.90;;;;;;5076284;28;20407;-60
2022/05/07 08:50:12;;;;;;;135.82;82.75;;;31.00;99.90;;;;;;5063496;28;20440;-60
2022/05/07 08:52:43;;;;;;;275.33;162.30;;;30.90;99.90;;;;;;5059077;28;20199;-62
2022/05/07 08:55:14;;;;;;;252.13;161.77;;;30.70;99.90;;;;;;5074485;28;20059;-60
2022/05/07 08:57:42;;;;;;;75.47;49.30;;;30.70;99.90;;;;;;5076229;28;20028;-60
2022/05/07 09:00:10;;;;;;;64.10;45.15;;;30.80;99.90;;;;;;5074115;28;20024;-60
2022/05/07 09:02:48;;;;;;;84.45;64.95;;;30.80;99.90;;;;;;5076261;28;20095;-59
2022/05/07 09:05:21;;;;;;;81.97;60.63;;;30.80;99.90;;;;;;5064917;28;20384;-59
2022/05/07 09:07:59;;;;;;;156.43;109.35;;;30.70;99.90;;;;;;5061918;28;20103;-59
2022/05/07 09:10:27;;;;;;;192.10;151.25;;;30.80;99.90;;;;;;5068532;28;20032;-60
2022/05/07 09:12:58;;;;;;;311.50;263.45;;;30.70;99.90;;;;;;5068852;28;20358;-62
2022/05/07 09:15:25;;;;;;;269.67;240.27;;;30.60;99.90;;;;;;5073368;28;20483;-59
2022/05/07 09:17:51;;;;;;;200.05;174.00;;;30.70;99.90;;;;;;5073654;28;20043;-61
2022/05/07 09:20:18;;;;;;;174.98;142.85;;;30.70;99.90;;;;;;5066721;28;20031;-62
2022/05/07 09:22:54;;;;;;;133.93;114.65;;;30.60;99.90;;;;;;5071225;28;20036;-61
2022/05/07 09:25:23;;;;;;;80.25;69.10;;;30.70;99.90;;;;;;5071452;28;20024;-62
2022/05/07 09:27:51;;;;;;;83.32;67.20;;;30.60;99.90;;;;;;5072622;28;20457;-62
2022/05/07 09:30:26;;;;;;;53.00;42.20;;;30.70;99.90;;;;;;5067598;28;20039;-60
2022/05/07 09:32:55;;;;;;;111.90;82.30;;;30.80;99.90;;;;;;5071715;28;20099;-61
2022/05/07 09:38:06;;;;;;;79.53;52.65;;;30.80;99.90;;;;;;5068825;28;20094;-59
2022/05/07 09:40:39;;;;;;;71.15;41.97;;;30.70;99.90;;;;;;5066368;28;20028;-61
2022/05/07 09:43:08;;;;;;;148.82;132.63;;;30.80;99.90;;;;;;5070370;28;20060;-62
2022/05/07 09:45:37;;;;;;;58.80;40.15;;;30.80;99.90;;;;;;5072467;28;20048;-62
2022/05/07 09:48:05;;;;;;;65.32;49.78;;;30.80;99.90;;;;;;5073353;28;20409;-60
2022/05/07 09:58:35;;;;;;;172.40;151.15;;;30.90;99.90;;;;;;5071719;28;20036;-59
2022/05/07 10:01:09;;;;;;;89.97;66.93;;;30.90;99.90;;;;;;5071323;28;20027;-61
2022/05/07 10:03:45;;;;;;;77.47;53.78;;;30.70;99.90;;;;;;5069292;28;20073;-60
2022/05/07 10:06:28;;;;;;;112.90;74.18;;;30.40;99.90;;;;;;5067919;28;20622;-60
2022/05/07 10:09:06;;;;;;;75.78;48.58;;;30.20;99.90;;;;;;5065365;28;20287;-59
2022/05/07 10:11:34;;;;;;;75.97;52.63;;;30.10;99.90;;;;;;5062973;28;20497;-61
2022/05/07 10:14:01;;;;;;;74.28;61.92;;;30.00;99.90;;;;;;5071488;28;20031;-62
2022/05/07 10:16:31;;;;;;;232.65;187.38;;;30.10;99.90;;;;;;5074667;28;20080;-61
2022/05/07 10:19:10;;;;;;;257.25;190.20;;;30.10;99.90;;;;;;5073029;28;20060;-60
2022/05/07 10:21:37;;;;;;;154.75;97.75;;;30.00;99.90;;;;;;5072586;28;20040;-59
2022/05/07 10:24:05;;;;;;;104.32;66.85;;;30.00;99.90;;;;;;5077725;28;20052;-60
2022/05/07 10:26:41;;;;;;;259.98;188.75;;;29.70;99.90;;;;;;5078058;28;20045;-60
2022/05/07 10:29:21;;;;;;;99.80;74.38;;;29.60;99.90;;;;;;5077480;28;20068;-60
2022/05/07 10:31:47;;;;;;;109.68;64.45;;;29.60;99.90;;;;;;5075078;28;20506;-61
2022/05/07 10:34:27;;;;;;;55.10;35.22;;;29.70;99.90;;;;;;5075851;28;20501;-60
2022/05/07 10:37:04;;;;;;;85.88;62.97;;;29.60;99.90;;;;;;5068747;28;20048;-60
2022/05/07 10:39:31;;;;;;;50.85;35.17;;;29.40;99.90;;;;;;5075744;28;20062;-60
2022/05/07 10:42:01;;;;;;;44.08;27.85;;;29.10;99.90;;;;;;5062766;28;20485;-59
2022/05/07 10:44:34;;;;;;;60.60;39.83;;;29.10;99.90;;;;;;5076187;28;20042;-59
2022/05/07 10:47:12;;;;;;;95.95;69.28;;;29.00;99.90;;;;;;5076508;28;20031;-59
2022/05/07 10:49:50;;;;;;;57.15;40.72;;;28.90;99.90;;;;;;5077726;28;20035;-60
2022/05/07 10:52:28;;;;;;;50.08;31.30;;;28.90;99.90;;;;;;5073967;28;20493;-60
2022/05/07 10:55:10;;;;;;;40.63;26.25;;;29.10;99.90;;;;;;5073675;28;20505;-61
2022/05/07 10:57:40;;;;;;;29.30;16.13;;;29.20;99.90;;;;;;5073086;28;20064;-62
2022/05/07 11:00:11;;;;;;;25.17;16.10;;;29.10;99.90;;;;;;5068991;28;20056;-59
2022/05/07 11:02:38;;;;;;;33.10;16.57;;;28.90;99.90;;;;;;5069813;28;20021;-60
2022/05/07 11:05:05;;;;;;;25.77;15.80;;;28.80;99.90;;;;;;5075812;28;20073;-60
2022/05/07 11:07:32;;;;;;;52.35;31.98;;;28.90;99.90;;;;;;5075953;28;20473;-59
2022/05/07 11:09:59;;;;;;;35.47;22.23;;;29.00;99.90;;;;;;5068985;28;20032;-60
2022/05/07 11:12:26;;;;;;;33.50;18.20;;;29.10;99.90;;;;;;5055792;28;20057;-61
2022/05/07 11:14:53;;;;;;;38.30;23.70;;;29.10;99.90;;;;;;5060358;28;20029;-62
2022/05/07 11:17:27;;;;;;;28.27;15.68;;;29.20;99.90;;;;;;5075446;28;20042;-60
2022/05/07 11:19:53;;;;;;;37.58;19.45;;;29.10;99.90;;;;;;5074105;28;20025;-62
2022/05/07 11:22:30;;;;;;;34.75;20.83;;;29.10;99.90;;;;;;5073658;28;20497;-62
2022/05/07 11:24:59;;;;;;;46.15;24.80;;;29.00;99.90;;;;;;5072478;28;20465;-60
2022/05/07 11:27:33;;;;;;;71.25;48.35;;;29.00;99.90;;;;;;5076698;28;20048;-61
2022/05/07 11:30:04;;;;;;;72.97;48.25;;;29.10;99.90;;;;;;5075565;28;20097;-62
2022/05/07 11:32:41;;;;;;;57.93;42.47;;;29.10;99.90;;;;;;5076993;28;20461;-58
2022/05/07 11:35:09;;;;;;;59.22;46.15;;;29.10;99.90;;;;;;5077173;28;20297;-59
2022/05/07 11:37:44;;;;;;;71.60;51.63;;;29.20;99.90;;;;;;5078131;28;20044;-58
2022/05/07 11:40:13;;;;;;;38.33;23.33;;;29.20;99.90;;;;;;5075799;28;20024;-58
2022/05/07 11:42:47;;;;;;;35.63;24.48;;;29.10;99.90;;;;;;5075241;28;20103;-59
2022/05/07 11:47:55;;;;;;;39.95;24.70;;;29.10;99.90;;;;;;5076495;28;20028;-59
2022/05/07 11:50:27;;;;;;;37.03;22.25;;;29.10;99.90;;;;;;5076784;28;20385;-61
2022/05/07 11:52:54;;;;;;;31.60;19.00;;;29.30;99.90;;;;;;5073264;28;20028;-59
2022/05/07 11:55:29;;;;;;;79.60;53.40;;;29.30;99.90;;;;;;5074992;28;20281;-58
2022/05/07 11:57:57;;;;;;;94.88;68.78;;;29.30;99.90;;;;;;5076749;28;20032;-61
2022/05/07 12:00:30;;;;;;;67.13;45.83;;;29.30;99.90;;;;;;5076525;28;20492;-59
2022/05/07 12:03:03;;;;;;;76.55;53.28;;;29.40;99.90;;;;;;5072049;28;20487;-59
2022/05/07 12:05:49;;;;;;;86.00;61.92;;;29.40;99.90;;;;;;5059034;28;20329;-59
2022/05/07 12:08:18;;;;;;;113.20;77.22;;;29.40;99.90;;;;;;5075618;28;20032;-58
2022/05/07 12:10:47;;;;;;;92.78;63.53;;;29.40;99.90;;;;;;5074762;28;20417;-59
2022/05/07 12:13:16;;;;;;;58.60;37.45;;;29.50;99.90;;;;;;5076356;28;20070;-58
2022/05/07 12:18:14;;;;;;;123.35;99.35;;;29.30;99.90;;;;;;5076190;28;20048;-59
2022/05/07 12:20:40;;;;;;;52.85;33.38;;;29.30;99.90;;;;;;5073759;28;20487;-58
2022/05/07 12:31:02;;;;;;;48.95;29.65;;;29.30;99.90;;;;;;5063077;28;20025;-61
2022/05/07 12:33:29;;;;;;;41.92;24.35;;;29.40;99.90;;;;;;5069684;28;20039;-61
2022/05/07 12:35:56;;;;;;;61.13;43.53;;;29.40;99.90;;;;;;5066776;28;20466;-60
2022/05/07 12:38:23;;;;;;;64.90;39.83;;;29.30;99.90;;;;;;5059161;28;20021;-59
2022/05/07 12:40:49;;;;;;;87.75;63.65;;;29.30;99.90;;;;;;5068738;28;20476;-59
2022/05/07 12:43:16;;;;;;;100.00;70.82;;;29.40;99.90;;;;;;5073690;28;20369;-59
2022/05/07 12:45:43;;;;;;;76.88;52.70;;;29.40;99.90;;;;;;5074333;28;20048;-60
2022/05/07 12:48:10;;;;;;;81.13;62.45;;;29.40;99.90;;;;;;5074202;28;20028;-59
2022/05/07 12:50:37;;;;;;;61.35;39.75;;;29.40;99.90;;;;;;5074120;28;20032;-59
2022/05/07 12:53:04;;;;;;;67.20;35.78;;;29.50;99.90;;;;;;5074427;28;20025;-60
2022/05/07 12:55:30;;;;;;;66.30;33.88;;;29.50;99.90;;;;;;5072982;28;20470;-60
2022/05/07 12:57:57;;;;;;;69.28;34.05;;;29.50;99.90;;;;;;5058205;28;20116;-59
2022/05/07 13:00:24;;;;;;;58.63;32.90;;;29.50;99.90;;;;;;5069725;28;20029;-59
2022/05/07 13:02:53;;;;;;;62.65;32.38;;;29.40;99.90;;;;;;5076433;28;20016;-60
2022/05/07 13:05:21;;;;;;;65.63;36.50;;;29.40;99.90;;;;;;5076536;28;20075;-61
2022/05/07 13:07:49;;;;;;;56.33;34.50;;;29.30;99.90;;;;;;5076378;28;20037;-60
2022/05/07 13:10:16;;;;;;;74.95;39.20;;;29.20;99.90;;;;;;5064327;28;20046;-59
2022/05/07 13:12:46;;;;;;;86.57;47.53;;;29.10;99.90;;;;;;5073339;28;20111;-60
2022/05/07 13:15:12;;;;;;;88.35;49.83;;;29.00;99.90;;;;;;5072825;28;20031;-58
2022/05/07 13:17:39;;;;;;;90.25;54.60;;;28.90;99.90;;;;;;5072332;28;20035;-59
2022/05/07 13:20:07;;;;;;;89.43;49.58;;;28.90;99.90;;;;;;5071443;28;20058;-59